createdAt,value
2019-03-05T00:00:20.634Z,2.00
2019-03-05T00:01:30.228Z,2.20
2019-03-05T00:02:34.605Z,2.10
2019-03-05T00:03:38.928Z,2.10
2019-03-05T00:04:43.199Z,2.00
2019-03-05T00:05:47.515Z,2.20
2019-03-05T00:06:51.875Z,2.00
2019-03-05T00:07:56.407Z,2.33
2019-03-05T00:09:00.609Z,2.20
2019-03-05T00:10:05.599Z,2.20
2019-03-05T00:11:09.953Z,2.10
2019-03-05T00:12:14.245Z,2.10
2019-03-05T00:13:18.754Z,2.20
2019-03-05T00:14:25.140Z,1.97
2019-03-05T00:15:29.975Z,1.93
2019-03-05T00:16:34.243Z,2.50
2019-03-05T00:17:38.582Z,1.93
2019-03-05T00:18:42.960Z,2.00
2019-03-05T00:19:47.139Z,1.90
2019-03-05T00:20:51.664Z,2.00
2019-03-05T00:21:56.060Z,2.00
2019-03-05T00:23:00.386Z,2.40
2019-03-05T00:25:11.915Z,1.70
2019-03-05T00:26:16.538Z,1.50
2019-03-05T00:27:20.920Z,1.67
2019-03-05T00:28:35.036Z,1.70
2019-03-05T00:29:57.836Z,1.93
2019-03-05T00:31:09.477Z,1.70
2019-03-05T00:32:13.882Z,1.73
2019-03-05T00:33:26.813Z,1.80
2019-03-05T00:34:38.299Z,1.80
2019-03-05T00:37:04.842Z,1.63
2019-03-05T00:38:14.745Z,1.73
2019-03-05T00:39:36.581Z,1.90
2019-03-05T00:40:54.709Z,1.90
2019-03-05T00:42:08.754Z,2.03
2019-03-05T00:43:18.402Z,2.20
2019-03-05T00:44:46.853Z,2.10
2019-03-05T00:46:39.010Z,2.27
2019-03-05T00:49:56.656Z,2.30
2019-03-05T00:51:24.278Z,2.10
2019-03-05T00:52:28.457Z,2.53
2019-03-05T00:53:49.110Z,2.73
2019-03-05T00:56:08.005Z,3.30
2019-03-05T00:57:25.254Z,3.80
2019-03-05T00:58:41.093Z,4.07
2019-03-05T01:00:06.215Z,4.07
2019-03-05T01:03:23.410Z,4.40
2019-03-05T01:05:45.590Z,3.83
2019-03-05T01:06:49.965Z,4.00
2019-03-05T01:07:54.430Z,4.20
2019-03-05T01:08:58.883Z,4.60
2019-03-05T01:10:03.197Z,4.57
2019-03-05T01:11:07.586Z,4.40
2019-03-05T01:12:11.992Z,4.57
2019-03-05T01:13:16.399Z,4.40
2019-03-05T01:14:21.233Z,4.27
2019-03-05T01:15:25.710Z,4.37
2019-03-05T01:16:31.388Z,4.33
2019-03-05T01:17:35.694Z,4.40
2019-03-05T01:18:40.137Z,4.47
2019-03-05T01:19:44.614Z,4.00
2019-03-05T01:20:48.967Z,4.33
2019-03-05T01:21:53.149Z,4.27
2019-03-05T01:22:57.387Z,4.53
2019-03-05T01:24:01.858Z,4.57
2019-03-05T01:25:06.355Z,4.37
2019-03-05T01:26:10.803Z,4.07
2019-03-05T01:27:15.074Z,4.60
2019-03-05T01:28:19.430Z,4.80
2019-03-05T01:29:23.861Z,4.67
2019-03-05T01:30:32.713Z,4.40
2019-03-05T01:31:41.875Z,5.00
2019-03-05T01:32:50.822Z,4.40
2019-03-05T01:33:59.194Z,4.70
2019-03-05T01:35:10.500Z,4.97
2019-03-05T01:36:17.954Z,4.60
2019-03-05T01:37:22.400Z,4.10
2019-03-05T01:38:26.824Z,3.93
2019-03-05T01:39:43.543Z,3.70
2019-03-05T01:40:52.218Z,3.57
2019-03-05T01:41:56.623Z,3.70
2019-03-05T01:43:00.972Z,3.97
2019-03-05T01:44:05.400Z,3.90
2019-03-05T01:45:11.279Z,3.90
2019-03-05T01:46:15.624Z,4.00
2019-03-05T01:47:19.885Z,4.43
2019-03-05T01:48:24.230Z,3.90
2019-03-05T01:49:28.497Z,3.77
2019-03-05T01:50:32.907Z,4.20
2019-03-05T01:51:37.160Z,3.73
2019-03-05T01:52:41.523Z,4.23
2019-03-05T01:53:45.836Z,4.47
2019-03-05T01:54:50.112Z,3.67
2019-03-05T01:55:54.364Z,4.00
2019-03-05T01:56:58.714Z,3.70
2019-03-05T01:58:03.159Z,3.90
2019-03-05T01:59:07.475Z,3.70
2019-03-05T02:00:12.490Z,3.30
2019-03-05T02:01:16.945Z,3.60
2019-03-05T02:02:21.304Z,3.67
2019-03-05T02:03:25.774Z,3.40
2019-03-05T02:04:30.125Z,3.27
2019-03-05T02:05:34.837Z,3.37
2019-03-05T02:06:39.427Z,3.20
2019-03-05T02:07:43.746Z,3.03
2019-03-05T02:08:48.086Z,3.27
2019-03-05T02:09:52.574Z,3.40
2019-03-05T02:10:56.796Z,3.30
2019-03-05T02:12:01.115Z,3.20
2019-03-05T02:13:05.492Z,3.37
2019-03-05T02:14:09.852Z,3.50
2019-03-05T02:15:14.349Z,2.90
2019-03-05T02:16:18.654Z,3.10
2019-03-05T02:17:23.121Z,3.40
2019-03-05T02:18:27.638Z,3.50
2019-03-05T02:19:37.697Z,3.17
2019-03-05T02:20:42.158Z,3.37
2019-03-05T02:21:46.525Z,3.13
2019-03-05T02:22:55.343Z,2.20
2019-03-05T02:24:10.012Z,2.70
2019-03-05T02:26:28.495Z,2.97
2019-03-05T02:27:57.671Z,3.13
2019-03-05T02:30:12.929Z,2.50
2019-03-05T02:31:28.662Z,2.70
2019-03-05T02:32:43.887Z,2.17
2019-03-05T02:33:59.121Z,2.63
2019-03-05T02:35:20.116Z,2.10
2019-03-05T02:37:37.762Z,2.40
2019-03-05T02:39:00.724Z,2.50
2019-03-05T02:40:20.239Z,2.60
2019-03-05T02:41:33.347Z,2.90
2019-03-05T02:42:53.086Z,2.60
2019-03-05T02:44:09.673Z,3.10
2019-03-05T02:45:31.323Z,2.87
2019-03-05T02:46:43.456Z,2.70
2019-03-05T02:47:57.532Z,2.77
2019-03-05T02:49:17.612Z,2.40
2019-03-05T02:51:35.121Z,2.30
2019-03-05T02:52:50.572Z,2.67
2019-03-05T02:54:07.351Z,2.27
2019-03-05T02:56:20.102Z,2.47
2019-03-05T02:57:22.880Z,1.97
2019-03-05T02:58:25.665Z,2.20
2019-03-05T02:59:29.925Z,2.10
2019-03-05T03:00:40.385Z,2.03
2019-03-05T03:01:53.624Z,1.97
2019-03-05T03:03:01.726Z,2.07
2019-03-05T03:04:09.817Z,1.90
2019-03-05T03:05:24.062Z,2.10
2019-03-05T03:06:31.341Z,2.07
2019-03-05T03:07:35.832Z,2.10
2019-03-05T03:08:40.118Z,1.80
2019-03-05T03:10:16.914Z,2.10
2019-03-05T03:11:21.194Z,2.20
2019-03-05T03:12:25.644Z,2.07
2019-03-05T03:13:30.046Z,2.17
2019-03-05T03:14:34.426Z,1.63
2019-03-05T03:15:38.723Z,1.87
2019-03-05T03:16:42.997Z,2.07
2019-03-05T03:17:47.790Z,2.30
2019-03-05T03:18:52.171Z,1.80
2019-03-05T03:19:56.499Z,2.00
2019-03-05T03:21:00.784Z,2.20
2019-03-05T03:22:05.420Z,1.73
2019-03-05T03:23:09.814Z,2.07
2019-03-05T03:24:14.117Z,2.03
2019-03-05T03:25:20.641Z,1.80
2019-03-05T03:26:25.018Z,1.77
2019-03-05T03:27:29.525Z,2.20
2019-03-05T03:28:33.926Z,1.83
2019-03-05T03:29:38.268Z,1.90
2019-03-05T03:30:42.606Z,2.03
2019-03-05T03:31:46.856Z,1.83
2019-03-05T03:32:51.305Z,1.80
2019-03-05T03:33:55.687Z,1.70
2019-03-05T03:34:59.960Z,1.87
2019-03-05T03:36:04.292Z,1.90
2019-03-05T03:37:08.600Z,1.80
2019-03-05T03:38:13.041Z,1.67
2019-03-05T03:39:17.515Z,1.90
2019-03-05T03:40:22.740Z,2.03
2019-03-05T03:41:27.177Z,1.63
2019-03-05T03:42:31.602Z,1.70
2019-03-05T03:43:36.037Z,1.60
2019-03-05T03:44:40.505Z,1.70
2019-03-05T03:45:44.814Z,1.77
2019-03-05T03:46:49.201Z,1.60
2019-03-05T03:47:53.513Z,1.70
2019-03-05T03:48:57.964Z,1.30
2019-03-05T03:50:02.253Z,1.80
2019-03-05T03:51:06.608Z,1.40
2019-03-05T03:52:10.858Z,1.60
2019-03-05T03:53:15.174Z,1.70
2019-03-05T03:54:19.533Z,1.20
2019-03-05T03:55:24.097Z,1.80
2019-03-05T03:56:28.316Z,1.40
2019-03-05T03:57:32.681Z,1.57
2019-03-05T03:58:36.913Z,1.53
2019-03-05T03:59:41.320Z,1.33
2019-03-05T04:00:45.753Z,1.50
2019-03-05T04:01:50.158Z,1.67
2019-03-05T04:02:55.138Z,1.30
2019-03-05T04:03:59.485Z,1.43
2019-03-05T04:05:04.110Z,1.67
2019-03-05T04:06:08.522Z,1.33
2019-03-05T04:07:12.842Z,1.40
2019-03-05T04:08:17.220Z,1.27
2019-03-05T04:09:21.605Z,1.20
2019-03-05T04:10:25.957Z,1.60
2019-03-05T04:11:30.368Z,1.40
2019-03-05T04:12:34.728Z,1.50
2019-03-05T04:13:39.055Z,1.40
2019-03-05T04:14:43.253Z,1.30
2019-03-05T04:15:47.659Z,1.30
2019-03-05T04:16:51.784Z,1.50
2019-03-05T04:17:56.097Z,1.60
2019-03-05T04:19:00.588Z,1.50
2019-03-05T04:20:05.083Z,1.20
2019-03-05T04:21:09.576Z,1.30
2019-03-05T04:22:14.003Z,1.57
2019-03-05T04:23:18.451Z,1.53
2019-03-05T04:24:22.745Z,1.30
2019-03-05T04:25:27.004Z,1.40
2019-03-05T04:26:31.115Z,1.30
2019-03-05T04:27:35.117Z,1.17
2019-03-05T04:28:39.129Z,1.40
2019-03-05T04:29:43.089Z,1.40
2019-03-05T04:30:47.064Z,1.70
2019-03-05T04:31:51.132Z,1.30
2019-03-05T04:32:55.126Z,1.43
2019-03-05T04:33:59.256Z,1.43
2019-03-05T04:35:03.350Z,1.37
2019-03-05T04:36:07.375Z,1.30
2019-03-05T04:37:11.440Z,1.30
2019-03-05T04:38:15.438Z,1.60
2019-03-05T04:39:19.454Z,1.50
2019-03-05T04:40:23.502Z,1.60
2019-03-05T04:41:27.486Z,1.63
2019-03-05T04:42:31.548Z,1.63
2019-03-05T04:43:35.601Z,1.30
2019-03-05T04:44:45.095Z,1.70
2019-03-05T04:45:55.744Z,1.50
2019-03-05T04:47:00.201Z,1.53
2019-03-05T04:48:04.459Z,1.43
2019-03-05T04:49:43.761Z,1.47
2019-03-05T04:50:53.605Z,1.30
2019-03-05T04:52:01.750Z,1.40
2019-03-05T04:53:06.113Z,1.40
2019-03-05T04:54:10.485Z,1.57
2019-03-05T04:55:14.888Z,1.40
2019-03-05T04:56:19.173Z,1.63
2019-03-05T04:57:23.466Z,1.40
2019-03-05T04:58:27.890Z,1.60
2019-03-05T04:59:32.329Z,1.40
2019-03-05T05:00:36.455Z,1.27
2019-03-05T05:01:40.869Z,1.40
2019-03-05T05:02:45.137Z,1.07
2019-03-05T05:03:49.524Z,1.63
2019-03-05T05:04:53.882Z,1.60
2019-03-05T05:05:58.187Z,1.47
2019-03-05T05:07:02.627Z,1.43
2019-03-05T05:08:07.073Z,1.50
2019-03-05T05:09:11.594Z,1.50
2019-03-05T05:10:15.998Z,1.50
2019-03-05T05:11:20.346Z,1.47
2019-03-05T05:12:24.630Z,1.20
2019-03-05T05:13:28.850Z,1.30
2019-03-05T05:14:33.187Z,1.20
2019-03-05T05:15:37.804Z,2.17
2019-03-05T05:16:42.074Z,1.43
2019-03-05T05:17:46.222Z,1.33
2019-03-05T05:18:50.582Z,1.50
2019-03-05T05:19:54.868Z,1.50
2019-03-05T05:20:59.426Z,1.60
2019-03-05T05:22:03.638Z,1.20
2019-03-05T05:23:08.003Z,1.30
2019-03-05T05:24:12.352Z,1.60
2019-03-05T05:25:16.735Z,1.30
2019-03-05T05:26:21.047Z,1.40
2019-03-05T05:27:25.449Z,1.27
2019-03-05T05:28:29.901Z,1.40
2019-03-05T05:29:34.386Z,1.20
2019-03-05T05:30:39.789Z,1.30
2019-03-05T05:31:44.116Z,1.30
2019-03-05T05:32:48.470Z,1.20
2019-03-05T05:33:52.750Z,1.67
2019-03-05T05:34:57.127Z,1.20
2019-03-05T05:36:01.462Z,1.33
2019-03-05T05:37:05.806Z,1.20
2019-03-05T05:38:10.191Z,1.20
2019-03-05T05:40:23.196Z,1.37
2019-03-05T05:41:27.558Z,1.20
2019-03-05T05:42:31.809Z,1.40
2019-03-05T05:43:36.181Z,1.13
2019-03-05T05:44:40.449Z,1.30
2019-03-05T05:45:47.211Z,1.30
2019-03-05T05:46:51.511Z,1.10
2019-03-05T05:47:55.924Z,1.10
2019-03-05T05:49:00.274Z,1.30
2019-03-05T05:50:04.668Z,1.20
2019-03-05T05:51:09.077Z,1.23
2019-03-05T05:52:13.297Z,1.10
2019-03-05T05:53:17.679Z,1.40
2019-03-05T05:54:21.952Z,1.10
2019-03-05T05:55:26.297Z,1.23
2019-03-05T05:56:30.654Z,1.00
2019-03-05T05:57:35.956Z,1.10
2019-03-05T05:58:39.553Z,1.03
2019-03-05T05:59:43.968Z,1.10
2019-03-05T06:00:51.152Z,1.10
2019-03-05T06:01:55.554Z,0.90
2019-03-05T06:02:59.954Z,1.20
2019-03-05T06:04:04.181Z,0.87
2019-03-05T06:05:08.914Z,1.13
2019-03-05T06:06:13.145Z,0.97
2019-03-05T06:07:17.590Z,1.10
2019-03-05T06:08:22.113Z,1.30
2019-03-05T06:09:26.624Z,1.10
2019-03-05T06:10:31.059Z,0.93
2019-03-05T06:11:35.336Z,1.37
2019-03-05T06:12:39.952Z,1.20
2019-03-05T06:13:44.360Z,1.10
2019-03-05T06:14:48.800Z,1.03
2019-03-05T06:15:53.093Z,1.10
2019-03-05T06:16:57.502Z,0.83
2019-03-05T06:18:01.929Z,1.17
2019-03-05T06:19:05.935Z,1.17
2019-03-05T06:20:11.392Z,1.00
2019-03-05T06:21:15.430Z,1.20
2019-03-05T06:22:19.469Z,1.10
2019-03-05T06:23:23.597Z,1.20
2019-03-05T06:24:27.659Z,1.00
2019-03-05T06:25:31.757Z,1.00
2019-03-05T06:26:35.791Z,0.90
2019-03-05T06:27:39.801Z,0.97
2019-03-05T06:28:43.963Z,1.20
2019-03-05T06:29:47.965Z,1.17
2019-03-05T06:30:51.960Z,0.97
2019-03-05T06:31:56.126Z,1.20
2019-03-05T06:33:00.163Z,1.23
2019-03-05T06:34:04.322Z,1.10
2019-03-05T06:35:08.585Z,1.20
2019-03-05T06:36:12.673Z,1.20
2019-03-05T06:37:16.697Z,1.10
2019-03-05T06:38:20.714Z,0.90
2019-03-05T06:39:24.954Z,1.43
2019-03-05T06:40:29.105Z,1.30
2019-03-05T06:41:33.123Z,1.00
2019-03-05T06:42:37.181Z,1.13
2019-03-05T06:43:41.237Z,1.13
2019-03-05T06:44:45.342Z,1.20
2019-03-05T06:45:49.383Z,1.40
2019-03-05T06:46:53.456Z,1.03
2019-03-05T06:47:57.534Z,1.20
2019-03-05T06:49:01.551Z,1.10
2019-03-05T06:50:06.399Z,0.97
2019-03-05T06:51:10.495Z,0.97
2019-03-05T06:52:14.593Z,1.13
2019-03-05T06:53:18.667Z,1.10
2019-03-05T06:54:22.687Z,1.10
2019-03-05T06:55:26.755Z,0.80
2019-03-05T06:56:30.905Z,1.13
2019-03-05T06:57:34.937Z,0.90
2019-03-05T06:58:39.121Z,1.20
2019-03-05T06:59:43.486Z,1.17
2019-03-05T07:00:47.997Z,1.23
2019-03-05T07:01:52.378Z,1.10
2019-03-05T07:02:56.705Z,0.80
2019-03-05T07:04:01.003Z,1.20
2019-03-05T07:05:05.605Z,1.27
2019-03-05T07:06:20.818Z,1.00
2019-03-05T07:07:25.617Z,0.97
2019-03-05T07:08:29.704Z,1.10
2019-03-05T07:09:40.602Z,1.00
2019-03-05T07:10:53.766Z,1.00
2019-03-05T07:12:09.081Z,0.80
2019-03-05T07:13:17.359Z,1.07
2019-03-05T07:14:27.493Z,0.93
2019-03-05T07:15:48.855Z,1.00
2019-03-05T07:18:03.157Z,0.90
2019-03-05T07:19:22.245Z,1.00
2019-03-05T07:22:40.935Z,0.80
2019-03-05T07:23:56.026Z,0.83
2019-03-05T07:25:00.396Z,0.90
2019-03-05T07:26:04.625Z,0.80
2019-03-05T07:27:10.014Z,1.03
2019-03-05T07:28:14.385Z,1.00
2019-03-05T07:29:18.694Z,1.00
2019-03-05T07:30:24.362Z,0.90
2019-03-05T07:31:28.653Z,1.00
2019-03-05T07:32:32.907Z,1.00
2019-03-05T07:33:37.280Z,1.00
2019-03-05T07:34:43.956Z,1.13
2019-03-05T07:35:48.275Z,1.00
2019-03-05T07:36:52.563Z,0.80
2019-03-05T07:37:57.026Z,0.90
2019-03-05T07:39:01.267Z,1.10
2019-03-05T07:40:06.070Z,1.00
2019-03-05T07:41:10.388Z,0.90
2019-03-05T07:42:14.634Z,1.13
2019-03-05T07:43:19.023Z,1.20
2019-03-05T07:44:23.449Z,1.00
2019-03-05T07:45:27.814Z,1.10
2019-03-05T07:46:32.132Z,1.00
2019-03-05T07:47:36.491Z,1.10
2019-03-05T07:48:40.896Z,2.20
2019-03-05T07:49:44.942Z,2.20
2019-03-05T07:50:55.754Z,1.63
2019-03-05T07:52:00.133Z,1.10
2019-03-05T07:53:04.673Z,0.97
2019-03-05T07:54:09.064Z,1.20
2019-03-05T07:55:15.527Z,1.23
2019-03-05T07:56:20.029Z,1.10
2019-03-05T07:57:24.267Z,1.00
2019-03-05T07:58:28.606Z,1.20
2019-03-05T07:59:32.850Z,1.13
2019-03-05T08:00:37.145Z,1.00
2019-03-05T08:01:41.538Z,1.03
2019-03-05T08:02:45.978Z,1.20
2019-03-05T08:03:50.341Z,1.13
2019-03-05T08:04:54.724Z,1.10
2019-03-05T08:05:59.121Z,0.93
2019-03-05T08:07:03.509Z,0.90
2019-03-05T08:08:26.449Z,0.90
2019-03-05T08:09:34.058Z,0.80
2019-03-05T08:10:38.449Z,0.97
2019-03-05T08:11:42.884Z,1.20
2019-03-05T08:13:07.878Z,1.20
2019-03-05T08:14:25.814Z,0.90
2019-03-05T08:16:01.955Z,1.17
2019-03-05T08:16:57.046Z,0.90
2019-03-05T08:18:01.281Z,0.90
2019-03-05T08:19:05.709Z,1.00
2019-03-05T08:20:11.011Z,1.33
2019-03-05T08:21:15.385Z,0.93
2019-03-05T08:22:19.726Z,1.00
2019-03-05T08:23:24.341Z,1.03
2019-03-05T08:24:28.572Z,0.90
2019-03-05T08:25:32.878Z,1.00
2019-03-05T08:26:37.145Z,1.00
2019-03-05T08:27:41.419Z,0.90
2019-03-05T08:28:45.708Z,0.90
2019-03-05T08:29:50.117Z,1.30
2019-03-05T08:30:54.601Z,0.90
2019-03-05T08:31:58.934Z,1.30
2019-03-05T08:33:19.238Z,1.17
2019-03-05T08:34:39.694Z,1.00
2019-03-05T08:35:59.957Z,0.97
2019-03-05T08:37:20.268Z,1.00
2019-03-05T08:38:40.623Z,1.00
2019-03-05T08:40:00.981Z,1.03
2019-03-05T08:41:04.763Z,1.87
2019-03-05T08:42:08.892Z,1.13
2019-03-05T08:43:12.611Z,0.90
2019-03-05T09:10:08.234Z,0.90
2019-03-05T09:11:12.409Z,1.10
2019-03-05T09:12:16.785Z,1.10
2019-03-05T09:13:31.941Z,1.10
2019-03-05T09:14:25.515Z,0.97
2019-03-05T09:15:29.835Z,1.00
2019-03-05T09:16:34.229Z,1.10
2019-03-05T09:17:38.598Z,0.77
2019-03-05T09:18:43.031Z,1.00
2019-03-05T09:19:47.374Z,1.13
2019-03-05T09:20:51.790Z,1.13
2019-03-05T09:21:56.099Z,1.13
2019-03-05T09:23:00.615Z,0.80
2019-03-05T09:24:04.982Z,1.00
2019-03-05T09:25:09.916Z,0.93
2019-03-05T09:26:14.310Z,0.80
2019-03-05T09:27:18.581Z,0.77
2019-03-05T09:28:22.935Z,0.90
2019-03-05T09:29:27.265Z,1.07
2019-03-05T09:30:31.553Z,1.00
2019-03-05T09:31:35.943Z,0.90
2019-03-05T09:32:40.309Z,0.90
2019-03-05T09:33:44.740Z,1.00
2019-03-05T09:34:49.108Z,1.03
2019-03-05T09:35:53.306Z,1.00
2019-03-05T09:36:57.602Z,1.20
2019-03-05T09:38:01.821Z,1.10
2019-03-05T09:39:07.943Z,0.90
2019-03-05T09:40:14.836Z,1.10
2019-03-05T09:41:19.150Z,0.70
2019-03-05T09:42:23.514Z,0.80
2019-03-05T09:43:27.893Z,0.90
2019-03-05T09:44:32.164Z,1.10
2019-03-05T09:45:36.430Z,0.80
2019-03-05T09:46:40.775Z,0.90
2019-03-05T09:47:45.355Z,0.97
2019-03-05T09:48:49.633Z,0.93
2019-03-05T09:49:54.034Z,0.80
2019-03-05T09:50:58.371Z,1.23
2019-03-05T09:52:02.732Z,1.00
2019-03-05T09:53:07.225Z,1.00
2019-03-05T09:54:11.497Z,1.00
2019-03-05T09:55:17.969Z,0.87
2019-03-05T09:56:22.233Z,1.13
2019-03-05T09:57:27.402Z,0.80
2019-03-05T09:58:31.103Z,0.97
2019-03-05T09:59:35.476Z,1.10
2019-03-05T10:00:39.867Z,0.77
2019-03-05T10:01:44.256Z,0.90
2019-03-05T10:02:48.683Z,0.70
2019-03-05T10:03:53.020Z,0.80
2019-03-05T10:04:57.038Z,0.80
2019-03-05T10:06:01.079Z,1.00
2019-03-05T10:07:05.406Z,0.90
2019-03-05T10:08:09.723Z,0.80
2019-03-05T10:09:14.093Z,0.70
2019-03-05T10:10:20.311Z,0.80
2019-03-05T10:11:24.910Z,0.80
2019-03-05T10:12:30.177Z,0.90
2019-03-05T10:13:33.673Z,1.00
2019-03-05T10:14:38.081Z,1.10
2019-03-05T10:15:42.450Z,0.83
2019-03-05T10:16:46.741Z,0.90
2019-03-05T10:17:51.209Z,1.00
2019-03-05T10:18:55.593Z,0.70
2019-03-05T10:20:00.039Z,0.80
2019-03-05T10:21:04.496Z,0.80
2019-03-05T10:22:08.889Z,0.70
2019-03-05T10:23:13.329Z,1.00
2019-03-05T10:24:17.626Z,0.80
2019-03-05T10:25:22.989Z,1.00
2019-03-05T10:26:27.388Z,0.70
2019-03-05T10:27:31.663Z,0.80
2019-03-05T10:28:36.133Z,0.80
2019-03-05T10:29:40.591Z,0.73
2019-03-05T10:30:44.955Z,0.80
2019-03-05T10:31:49.460Z,0.80
2019-03-05T10:32:54.045Z,0.90
2019-03-05T10:33:58.252Z,0.87
2019-03-05T10:35:02.562Z,0.90
2019-03-05T10:36:06.958Z,0.77
2019-03-05T10:37:14.689Z,0.80
2019-03-05T10:38:15.760Z,0.90
2019-03-05T10:39:30.426Z,0.80
2019-03-05T10:40:32.520Z,0.67
2019-03-05T10:41:36.996Z,0.70
2019-03-05T10:42:41.526Z,0.93
2019-03-05T10:43:45.846Z,0.80
2019-03-05T10:44:50.221Z,0.90
2019-03-05T10:45:54.579Z,0.80
2019-03-05T10:46:59.049Z,1.00
2019-03-05T10:48:03.414Z,0.90
2019-03-05T10:49:07.850Z,0.80
2019-03-05T10:50:15.729Z,0.80
2019-03-05T10:51:19.227Z,0.97
2019-03-05T10:52:23.310Z,0.83
2019-03-05T10:53:27.602Z,0.80
2019-03-05T10:54:31.633Z,0.90
2019-03-05T10:55:35.974Z,0.80
2019-03-05T10:56:40.294Z,0.90
2019-03-05T10:57:44.774Z,0.90
2019-03-05T10:58:49.108Z,0.73
2019-03-05T10:59:53.274Z,0.70
2019-03-05T11:00:57.735Z,0.80
2019-03-05T11:02:02.285Z,0.90
2019-03-05T11:03:09.705Z,0.90
2019-03-05T11:04:14.050Z,1.00
2019-03-05T11:05:18.554Z,1.00
2019-03-05T11:06:22.883Z,0.83
2019-03-05T11:07:27.295Z,0.93
2019-03-05T11:08:31.718Z,1.07
2019-03-05T11:09:36.040Z,1.10
2019-03-05T11:10:41.226Z,0.77
2019-03-05T11:11:44.903Z,0.90
2019-03-05T11:12:49.428Z,0.80
2019-03-05T11:13:53.619Z,0.90
2019-03-05T11:14:58.039Z,0.80
2019-03-05T11:16:02.387Z,1.10
2019-03-05T11:17:06.746Z,0.90
2019-03-05T11:18:11.374Z,0.93
2019-03-05T11:19:15.721Z,1.00
2019-03-05T11:20:20.182Z,0.90
2019-03-05T11:21:24.653Z,0.87
2019-03-05T11:22:28.853Z,1.00
2019-03-05T11:23:33.289Z,1.10
2019-03-05T11:24:37.658Z,1.00
2019-03-05T11:25:42.034Z,1.03
2019-03-05T11:26:46.366Z,0.97
2019-03-05T11:27:50.950Z,1.17
2019-03-05T11:28:55.272Z,1.20
2019-03-05T11:29:59.577Z,1.10
2019-03-05T11:31:04.054Z,1.20
2019-03-05T11:32:08.402Z,1.00
2019-03-05T11:33:12.706Z,1.20
2019-03-05T11:34:17.181Z,1.30
2019-03-05T11:35:23.291Z,1.27
2019-03-05T11:36:27.688Z,1.17
2019-03-05T11:37:31.987Z,1.00
2019-03-05T11:38:36.318Z,1.20
2019-03-05T11:39:40.774Z,0.90
2019-03-05T11:40:45.130Z,1.07
2019-03-05T11:41:49.579Z,1.10
2019-03-05T11:42:53.922Z,1.10
2019-03-05T11:43:58.366Z,1.10
2019-03-05T11:45:07.510Z,0.97
2019-03-05T11:46:09.333Z,1.00
2019-03-05T11:47:13.700Z,0.93
2019-03-05T11:48:18.049Z,0.90
2019-03-05T11:49:22.360Z,1.03
2019-03-05T11:50:26.825Z,0.90
2019-03-05T11:51:31.059Z,0.90
2019-03-05T11:52:35.379Z,1.20
2019-03-05T11:53:39.756Z,1.20
2019-03-05T11:54:44.102Z,1.03
2019-03-05T11:55:48.502Z,1.40
2019-03-05T11:56:52.839Z,1.00
2019-03-05T11:57:57.225Z,1.03
2019-03-05T11:59:01.540Z,1.10
2019-03-05T12:00:06.545Z,0.90
2019-03-05T12:01:19.366Z,1.10
2019-03-05T12:02:23.559Z,1.00
2019-03-05T12:03:27.884Z,1.00
2019-03-05T12:04:32.169Z,1.30
2019-03-05T12:05:36.434Z,1.37
2019-03-05T12:06:40.770Z,1.20
2019-03-05T12:07:46.140Z,1.00
2019-03-05T12:08:49.671Z,1.00
2019-03-05T12:09:54.031Z,0.90
2019-03-05T12:10:58.361Z,1.07
2019-03-05T12:12:02.968Z,0.70
2019-03-05T12:13:07.552Z,0.80
2019-03-05T12:14:11.913Z,0.90
2019-03-05T12:15:16.769Z,0.90
2019-03-05T12:16:21.066Z,0.80
2019-03-05T12:17:25.392Z,0.70
2019-03-05T12:18:29.654Z,0.83
2019-03-05T12:19:34.052Z,0.80
2019-03-05T12:20:38.353Z,0.80
2019-03-05T12:21:42.702Z,0.80
2019-03-05T12:22:47.021Z,0.83
2019-03-05T12:23:51.420Z,1.13
2019-03-05T12:24:57.693Z,0.90
2019-03-05T12:26:00.297Z,0.77
2019-03-05T12:27:04.546Z,0.80
2019-03-05T12:28:10.697Z,0.70
2019-03-05T12:29:13.284Z,0.80
2019-03-05T12:30:20.936Z,0.90
2019-03-05T12:31:25.446Z,0.80
2019-03-05T12:32:29.842Z,0.80
2019-03-05T12:33:34.287Z,0.80
2019-03-05T12:34:38.801Z,0.80
2019-03-05T12:35:43.158Z,0.83
2019-03-05T12:36:47.527Z,0.87
2019-03-05T12:37:52.154Z,0.70
2019-03-05T12:38:56.656Z,0.70
2019-03-05T12:40:00.760Z,0.97
2019-03-05T12:41:05.107Z,0.60
2019-03-05T12:42:09.320Z,0.87
2019-03-05T12:43:13.661Z,0.80
2019-03-05T12:44:18.134Z,0.80
2019-03-05T12:45:22.672Z,0.87
2019-03-05T12:46:27.113Z,1.00
2019-03-05T12:47:31.361Z,1.20
2019-03-05T12:48:40.001Z,0.90
2019-03-05T12:49:40.258Z,1.00
2019-03-05T12:50:44.620Z,1.00
2019-03-05T12:51:48.899Z,1.10
2019-03-05T12:52:53.517Z,1.03
2019-03-05T12:53:57.767Z,1.00
2019-03-05T12:55:02.193Z,1.00
2019-03-05T12:56:06.707Z,0.90
2019-03-05T12:57:10.993Z,1.00
2019-03-05T12:58:15.377Z,0.93
2019-03-05T12:59:19.582Z,0.83
2019-03-05T13:00:24.229Z,1.20
2019-03-05T13:01:28.637Z,0.90
2019-03-05T13:02:32.906Z,0.90
2019-03-05T13:03:37.239Z,1.10
2019-03-05T13:04:41.569Z,1.17
2019-03-05T13:05:45.998Z,0.80
2019-03-05T13:06:50.370Z,1.00
2019-03-05T13:07:56.576Z,0.80
2019-03-05T13:08:59.187Z,1.00
2019-03-05T13:10:03.451Z,1.77
2019-03-05T13:11:09.420Z,1.67
2019-03-05T13:12:12.325Z,1.20
2019-03-05T13:13:16.715Z,0.93
2019-03-05T13:14:20.955Z,0.80
2019-03-05T13:15:27.347Z,0.90
2019-03-05T13:16:35.167Z,0.90
2019-03-05T13:17:36.014Z,0.77
2019-03-05T13:18:40.326Z,0.80
2019-03-05T13:19:47.881Z,0.97
2019-03-05T13:20:49.043Z,0.80
2019-03-05T13:21:53.318Z,0.93
2019-03-05T13:22:57.634Z,0.80
2019-03-05T13:24:02.069Z,0.67
2019-03-05T13:25:06.345Z,0.93
2019-03-05T13:26:10.596Z,1.00
2019-03-05T13:27:18.740Z,1.00
2019-03-05T13:28:19.507Z,1.00
2019-03-05T13:29:23.789Z,0.90
2019-03-05T13:30:28.556Z,1.00
2019-03-05T13:31:32.929Z,0.93
2019-03-05T13:32:37.273Z,0.90
2019-03-05T13:33:42.167Z,1.07
2019-03-05T13:34:46.095Z,0.90
2019-03-05T13:35:50.484Z,0.77
2019-03-05T13:36:54.986Z,0.80
2019-03-05T13:37:59.306Z,0.63
2019-03-05T13:39:03.813Z,0.90
2019-03-05T13:40:09.439Z,0.80
2019-03-05T13:41:15.714Z,0.90
2019-03-05T13:42:18.178Z,0.80
2019-03-05T13:43:22.725Z,1.07
2019-03-05T13:44:32.120Z,1.20
2019-03-05T13:45:35.886Z,0.90
2019-03-05T13:46:40.121Z,1.10
2019-03-05T13:47:48.756Z,0.90
2019-03-05T13:50:08.249Z,0.83
2019-03-05T13:53:25.261Z,0.90
2019-03-05T13:55:13.568Z,0.90
2019-03-05T13:56:37.614Z,0.97
2019-03-05T13:57:55.103Z,1.00
2019-03-05T13:59:10.352Z,0.70
2019-03-05T14:00:14.833Z,1.10
2019-03-05T14:01:19.371Z,0.87
2019-03-05T14:02:27.063Z,0.90
2019-03-05T14:03:36.035Z,0.80
2019-03-05T14:04:47.186Z,1.00
2019-03-05T14:08:15.971Z,1.07
2019-03-05T14:09:21.294Z,0.90
2019-03-05T14:10:26.309Z,1.20
2019-03-05T14:11:30.346Z,0.97
2019-03-05T14:12:34.753Z,0.67
2019-03-05T14:13:39.170Z,1.00
2019-03-05T14:14:43.530Z,0.73
2019-03-05T14:15:47.847Z,0.73
2019-03-05T14:17:25.153Z,0.90
2019-03-05T14:18:31.198Z,0.80
2019-03-05T14:19:34.199Z,0.73
2019-03-05T14:20:38.530Z,0.90
2019-03-05T14:21:42.932Z,0.90
2019-03-05T14:22:47.647Z,1.03
2019-03-05T14:23:51.960Z,1.00
2019-03-05T14:25:02.177Z,1.03
2019-03-05T14:26:00.689Z,1.10
2019-03-05T14:27:05.170Z,1.07
2019-03-05T14:28:09.398Z,0.80
2019-03-05T14:29:13.857Z,1.00
2019-03-05T14:30:20.957Z,2.10
2019-03-05T14:31:23.635Z,1.67
2019-03-05T14:32:28.120Z,1.10
2019-03-05T14:33:32.400Z,1.00
2019-03-05T14:34:36.730Z,1.10
2019-03-05T14:35:41.279Z,0.90
2019-03-05T14:36:45.557Z,1.00
2019-03-05T14:37:50.241Z,0.90
2019-03-05T14:38:54.635Z,0.83
2019-03-05T14:40:22.252Z,1.30
2019-03-05T14:41:03.536Z,1.00
2019-03-05T14:42:09.135Z,0.90
2019-03-05T14:43:13.489Z,0.90
2019-03-05T14:44:18.050Z,0.90
2019-03-05T14:45:25.657Z,1.10
2019-03-05T14:46:30.287Z,0.90
2019-03-05T14:47:34.661Z,0.90
2019-03-05T14:48:38.916Z,0.90
2019-03-05T14:49:43.252Z,0.63
2019-03-05T14:50:47.507Z,0.93
2019-03-05T14:51:51.906Z,0.80
2019-03-05T14:52:56.292Z,0.90
2019-03-05T14:54:00.812Z,0.80
2019-03-05T14:55:05.586Z,0.70
2019-03-05T14:56:09.938Z,0.80
2019-03-05T14:57:14.390Z,0.90
2019-03-05T14:58:18.739Z,0.73
2019-03-05T14:59:23.286Z,0.90
2019-03-05T15:00:27.674Z,0.90
2019-03-05T15:01:31.968Z,0.90
2019-03-05T15:02:36.321Z,0.83
2019-03-05T15:03:40.807Z,0.80
2019-03-05T15:04:44.986Z,1.00
2019-03-05T15:05:49.489Z,1.27
2019-03-05T15:06:53.833Z,0.90
2019-03-05T15:07:58.232Z,0.80
2019-03-05T15:09:02.628Z,0.83
2019-03-05T15:10:08.657Z,0.90
2019-03-05T15:11:13.081Z,0.70
2019-03-05T15:12:17.636Z,0.73
2019-03-05T15:13:22.099Z,0.80
2019-03-05T15:14:26.481Z,0.87
2019-03-05T15:15:31.555Z,0.87
2019-03-05T15:16:36.039Z,0.80
2019-03-05T15:17:40.428Z,0.80
2019-03-05T15:18:44.534Z,0.87
2019-03-05T15:19:48.674Z,0.70
2019-03-05T15:20:52.723Z,0.80
2019-03-05T15:21:56.770Z,0.70
2019-03-05T15:23:00.936Z,0.80
2019-03-05T15:24:05.249Z,0.70
2019-03-05T15:25:10.639Z,0.80
2019-03-05T15:26:14.765Z,0.67
2019-03-05T15:27:18.819Z,0.80